createdAt,value
2022-10-13T00:02:10.099Z,12.60
2022-10-13T00:07:14.028Z,12.60
2022-10-13T00:12:17.229Z,12.60
2022-10-13T00:17:33.138Z,12.60
2022-10-13T00:22:39.277Z,12.50
2022-10-13T00:27:54.234Z,12.50
2022-10-13T00:33:08.058Z,12.50
2022-10-13T00:38:44.458Z,12.50
2022-10-13T00:44:13.609Z,12.50
2022-10-13T00:49:17.392Z,12.50
2022-10-13T00:54:27.071Z,12.40
2022-10-13T00:59:32.109Z,12.40
2022-10-13T01:04:44.557Z,12.40
2022-10-13T01:09:49.642Z,12.50
2022-10-13T01:15:10.921Z,12.50
2022-10-13T01:20:32.287Z,12.60
2022-10-13T01:26:18.972Z,12.60
2022-10-13T01:31:39.080Z,12.60
2022-10-13T01:37:15.015Z,12.70
2022-10-13T01:42:29.854Z,12.80
2022-10-13T01:47:38.653Z,12.90
2022-10-13T01:52:44.287Z,13.00
2022-10-13T01:57:47.823Z,13.00
2022-10-13T02:03:17.855Z,13.10
2022-10-13T02:08:57.974Z,13.20
2022-10-13T02:14:15.192Z,13.20
2022-10-13T02:19:19.219Z,13.20
2022-10-13T02:24:42.708Z,13.30
2022-10-13T02:29:55.624Z,13.30
2022-10-13T02:35:13.775Z,13.30
2022-10-13T02:40:26.300Z,13.30
2022-10-13T02:45:36.812Z,13.40
2022-10-13T02:50:54.407Z,13.40
2022-10-13T02:56:01.994Z,13.50
2022-10-13T03:01:15.101Z,13.60
2022-10-13T03:06:25.899Z,13.70
2022-10-13T03:11:47.000Z,13.70
2022-10-13T03:22:33.890Z,13.70
2022-10-13T03:28:20.532Z,13.70
2022-10-13T03:34:16.952Z,13.70
2022-10-13T03:39:31.679Z,13.70
2022-10-13T03:44:43.649Z,13.70
2022-10-13T03:50:09.251Z,13.80
2022-10-13T03:55:43.783Z,13.80
2022-10-13T04:00:59.047Z,13.80
2022-10-13T04:06:14.429Z,13.80
2022-10-13T04:11:54.323Z,13.80
2022-10-13T04:22:47.380Z,13.90
2022-10-13T04:28:32.409Z,13.90
2022-10-13T04:33:45.159Z,14.00
2022-10-13T04:44:10.607Z,13.90
2022-10-13T04:49:17.115Z,13.90
2022-10-13T04:54:20.605Z,13.80
2022-10-13T05:06:53.246Z,13.80
2022-10-13T05:12:05.523Z,13.80
2022-10-13T05:17:50.594Z,13.80
2022-10-13T05:23:55.359Z,13.80
2022-10-13T05:29:26.158Z,13.80
2022-10-13T05:34:28.342Z,13.90
2022-10-13T05:39:39.202Z,13.90
2022-10-13T05:44:54.448Z,13.80
2022-10-13T05:55:34.771Z,13.90
2022-10-13T06:13:40.787Z,13.80
2022-10-13T06:24:34.059Z,13.80
2022-10-13T06:29:54.643Z,13.80
2022-10-13T06:34:59.776Z,13.90
2022-10-13T06:40:07.723Z,13.90
2022-10-13T06:45:15.061Z,13.90
2022-10-13T06:50:24.746Z,13.90
2022-10-13T06:55:32.454Z,14.00
2022-10-13T07:00:44.806Z,14.00
2022-10-13T07:06:39.949Z,14.00
2022-10-13T07:11:53.391Z,14.10
2022-10-13T07:23:14.755Z,14.20
2022-10-13T07:28:20.410Z,14.30
2022-10-13T07:33:23.097Z,14.30
2022-10-13T07:38:27.482Z,14.40
2022-10-13T07:43:45.430Z,14.40
2022-10-13T07:48:57.085Z,14.50
2022-10-13T07:54:14.595Z,14.50
2022-10-13T07:59:22.147Z,14.60
2022-10-13T08:04:37.950Z,14.70
2022-10-13T08:09:43.733Z,14.80
2022-10-13T08:14:50.654Z,14.80
2022-10-13T08:19:54.364Z,14.90
2022-10-13T08:25:23.440Z,15.00
2022-10-13T08:30:31.531Z,15.10
2022-10-13T08:35:35.175Z,15.20
2022-10-13T08:40:40.599Z,15.30
2022-10-13T08:45:42.846Z,15.30
2022-10-13T08:50:50.556Z,15.40
2022-10-13T08:56:23.001Z,15.70
2022-10-13T09:01:41.143Z,15.80
2022-10-13T09:06:54.834Z,15.90
2022-10-13T09:11:58.691Z,16.20
2022-10-13T09:17:19.089Z,16.40
2022-10-13T09:22:28.156Z,16.40
2022-10-13T09:28:06.917Z,16.70
2022-10-13T09:33:16.222Z,16.80
2022-10-13T09:38:27.992Z,17.00
2022-10-13T09:43:58.225Z,17.10
2022-10-13T09:49:32.666Z,17.20
2022-10-13T09:55:01.777Z,17.10
2022-10-13T10:00:28.517Z,17.10
2022-10-13T10:05:54.149Z,17.10
2022-10-13T10:11:06.320Z,17.20
2022-10-13T10:16:31.691Z,17.30
2022-10-13T10:22:46.679Z,17.30
2022-10-13T10:28:13.926Z,17.30
2022-10-13T10:33:54.737Z,17.60
2022-10-13T10:39:08.220Z,17.60
2022-10-13T10:44:29.512Z,17.50
2022-10-13T10:49:54.517Z,17.50
2022-10-13T10:55:34.086Z,17.30
2022-10-13T11:01:05.655Z,17.40
2022-10-13T11:06:16.257Z,17.60
2022-10-13T11:11:37.952Z,17.90
2022-10-13T11:17:12.230Z,18.00
2022-10-13T11:22:20.669Z,18.10
2022-10-13T11:27:28.332Z,18.30
2022-10-13T11:32:35.712Z,18.40
2022-10-13T11:38:07.240Z,18.60
2022-10-13T11:43:50.361Z,18.70
2022-10-13T11:49:23.301Z,18.40
2022-10-13T11:55:21.959Z,18.20
2022-10-13T12:00:28.862Z,18.10
2022-10-13T12:05:32.835Z,18.10
2022-10-13T12:10:59.428Z,18.10
2022-10-13T12:16:11.708Z,18.10
2022-10-13T12:21:26.028Z,18.00
2022-10-13T12:31:49.809Z,17.30
2022-10-13T12:37:36.807Z,17.00
2022-10-13T12:42:41.437Z,16.70
2022-10-13T12:47:50.738Z,16.60
2022-10-13T12:52:59.273Z,16.60
2022-10-13T12:58:05.362Z,16.60
2022-10-13T13:03:22.914Z,16.60
2022-10-13T13:08:36.945Z,16.60
2022-10-13T13:14:47.245Z,16.60
2022-10-13T13:19:50.991Z,16.70
2022-10-13T13:25:00.499Z,16.70
2022-10-13T13:30:18.295Z,16.70
2022-10-13T13:35:22.769Z,16.70
2022-10-13T13:40:28.331Z,16.70
2022-10-13T13:45:30.659Z,16.80
2022-10-13T13:50:41.035Z,16.80
2022-10-13T13:56:16.829Z,16.70
2022-10-13T14:01:59.681Z,16.60
2022-10-13T14:07:30.924Z,16.60
2022-10-13T14:12:38.636Z,16.40
2022-10-13T14:17:44.352Z,16.40
2022-10-13T14:22:52.837Z,16.30
2022-10-13T14:27:55.555Z,16.10
2022-10-13T14:32:58.322Z,16.00
2022-10-13T14:38:04.537Z,16.00
2022-10-13T14:43:08.578Z,15.90
2022-10-13T14:48:12.247Z,16.00
2022-10-13T14:53:15.816Z,16.00
2022-10-13T14:58:46.504Z,15.90
2022-10-13T15:03:51.486Z,15.80
2022-10-13T15:08:53.996Z,15.80
2022-10-13T15:14:00.288Z,15.90
2022-10-13T15:19:07.001Z,15.90
2022-10-13T15:24:12.006Z,16.00
2022-10-13T15:29:21.421Z,16.00
2022-10-13T15:34:25.016Z,16.10
2022-10-13T15:39:33.807Z,16.10
2022-10-13T15:50:20.162Z,15.70
2022-10-13T15:55:25.829Z,15.60
2022-10-13T16:00:29.893Z,15.40
2022-10-13T16:05:40.122Z,15.30
2022-10-13T16:10:44.089Z,15.20
2022-10-13T16:15:57.782Z,15.00
2022-10-13T16:20:59.955Z,14.80
2022-10-13T16:26:03.705Z,14.70
2022-10-13T16:31:15.334Z,14.60
2022-10-13T16:36:20.098Z,14.50
2022-10-13T16:41:26.790Z,14.50
2022-10-13T16:46:37.814Z,14.50
2022-10-13T16:52:14.266Z,14.50
2022-10-13T16:57:16.771Z,14.50
2022-10-13T17:02:21.182Z,14.50
2022-10-13T17:07:24.945Z,14.50
2022-10-13T17:12:27.535Z,14.50
2022-10-13T17:17:38.134Z,14.50
2022-10-13T17:22:41.706Z,14.50
2022-10-13T17:27:44.117Z,14.50
2022-10-13T17:32:48.910Z,14.40
2022-10-13T17:37:55.602Z,14.40
2022-10-13T17:42:59.739Z,14.40
2022-10-13T17:48:09.250Z,14.40
2022-10-13T17:53:12.821Z,14.40
2022-10-13T17:58:16.565Z,14.40
2022-10-13T18:03:21.139Z,14.40
2022-10-13T18:08:26.562Z,14.30
2022-10-13T18:13:28.805Z,14.30
2022-10-13T18:18:32.448Z,14.30
2022-10-13T18:23:43.588Z,14.20
2022-10-13T18:28:50.032Z,14.20
2022-10-13T18:33:59.211Z,14.20
2022-10-13T18:39:18.207Z,14.10
2022-10-13T18:44:27.159Z,14.10
2022-10-13T18:49:31.997Z,14.10
2022-10-13T18:54:40.253Z,14.10
2022-10-13T18:59:44.344Z,14.10
2022-10-13T19:04:47.457Z,14.00
2022-10-13T19:09:51.433Z,14.10
2022-10-13T19:14:58.615Z,14.10
2022-10-13T19:20:05.309Z,14.10
2022-10-13T19:25:11.171Z,14.00
2022-10-13T19:30:14.450Z,14.00
2022-10-13T19:35:27.020Z,14.00
2022-10-13T19:40:42.260Z,14.00
2022-10-13T19:45:52.266Z,14.00
2022-10-13T19:51:08.330Z,13.90
2022-10-13T19:56:31.679Z,13.90
2022-10-13T20:01:41.241Z,13.90
2022-10-13T20:06:51.366Z,14.00
2022-10-13T20:11:58.945Z,14.00
2022-10-13T20:17:01.652Z,13.90
2022-10-13T20:22:05.966Z,13.90
2022-10-13T20:27:09.856Z,13.80
2022-10-13T20:32:15.688Z,13.80
2022-10-13T20:37:18.588Z,13.80
2022-10-13T20:42:25.975Z,13.70
2022-10-13T20:47:28.337Z,13.80
2022-10-13T20:52:34.863Z,13.70
2022-10-13T20:57:40.330Z,13.80
2022-10-13T21:02:52.459Z,13.80
2022-10-13T21:07:57.031Z,13.70
2022-10-13T21:12:59.645Z,13.70
2022-10-13T21:18:02.697Z,13.70
2022-10-13T21:23:06.945Z,13.70
2022-10-13T21:28:10.888Z,13.70
2022-10-13T21:33:16.609Z,13.70
2022-10-13T21:38:21.863Z,13.70
2022-10-13T21:43:27.035Z,13.70
2022-10-13T21:48:29.720Z,13.80
2022-10-13T21:53:34.106Z,13.70
2022-10-13T21:58:39.809Z,13.70
2022-10-13T22:03:43.896Z,13.70
2022-10-13T22:08:49.803Z,13.60
2022-10-13T22:14:09.801Z,13.60
2022-10-13T22:19:20.078Z,13.60
2022-10-13T22:24:31.096Z,13.50
2022-10-13T22:29:35.024Z,13.40
2022-10-13T22:34:45.695Z,13.40
2022-10-13T22:52:32.797Z,13.30
2022-10-13T22:57:47.040Z,13.30
2022-10-13T23:03:19.356Z,13.30
2022-10-13T23:37:27.955Z,13.20
2022-10-13T23:42:59.290Z,13.10
2022-10-13T23:48:18.946Z,13.10
2022-10-13T23:53:41.515Z,13.00
2022-10-13T23:58:58.501Z,13.00
